createdAt,value
2019-05-01T00:00:28.239Z,49.15
2019-05-01T00:01:24.197Z,47.93
2019-05-01T00:02:17.415Z,54.20
2019-05-01T00:03:10.982Z,50.67
2019-05-01T00:04:04.306Z,47.85
2019-05-01T00:04:56.551Z,46.02
2019-05-01T00:05:34.079Z,48.23
2019-05-01T00:06:08.570Z,48.23
2019-05-01T00:06:46.236Z,49.75
2019-05-01T00:07:28.590Z,56.40
2019-05-01T00:08:03.101Z,50.00
2019-05-01T00:08:37.536Z,49.35
2019-05-01T00:09:12.669Z,53.40
2019-05-01T00:09:46.956Z,50.73
2019-05-01T00:10:22.776Z,44.83
2019-05-01T00:10:56.967Z,46.45
2019-05-01T00:11:35.504Z,47.38
2019-05-01T00:12:28.617Z,47.93
2019-05-01T00:13:03.062Z,47.83
2019-05-01T00:13:37.365Z,55.25
2019-05-01T00:14:11.709Z,52.48
2019-05-01T00:14:45.873Z,45.05
2019-05-01T00:15:23.395Z,56.02
2019-05-01T00:15:57.762Z,55.10
2019-05-01T00:16:32.337Z,53.28
2019-05-01T00:17:06.666Z,53.80
2019-05-01T00:17:40.990Z,59.48
2019-05-01T00:18:15.197Z,62.23
2019-05-01T00:18:49.467Z,68.75
2019-05-01T00:19:23.683Z,62.40
2019-05-01T00:19:57.802Z,63.08
2019-05-01T00:20:32.084Z,71.45
2019-05-01T00:21:06.196Z,69.97
2019-05-01T00:21:40.386Z,61.73
2019-05-01T00:22:14.516Z,51.00
2019-05-01T00:22:48.792Z,67.00
2019-05-01T00:23:22.949Z,57.65
2019-05-01T00:23:57.164Z,53.50
2019-05-01T00:24:31.495Z,54.18
2019-05-01T00:25:06.179Z,52.58
2019-05-01T00:25:40.310Z,57.33
2019-05-01T00:26:14.437Z,63.95
2019-05-01T00:26:48.715Z,54.27
2019-05-01T00:27:22.817Z,48.55
2019-05-01T00:27:57.222Z,44.55
2019-05-01T00:28:31.479Z,44.55
2019-05-01T00:29:06.065Z,47.40
2019-05-01T00:29:40.233Z,53.55
2019-05-01T00:30:28.822Z,54.77
2019-05-01T00:30:56.078Z,51.98
2019-05-01T00:31:30.229Z,48.55
2019-05-01T00:32:04.296Z,47.60
2019-05-01T00:32:38.399Z,44.38
2019-05-01T00:33:12.715Z,42.85
2019-05-01T00:33:46.756Z,52.25
2019-05-01T00:34:20.959Z,51.50
2019-05-01T00:34:55.116Z,52.17
2019-05-01T00:35:29.422Z,52.08
2019-05-01T00:36:03.826Z,50.12
2019-05-01T00:36:38.020Z,62.78
2019-05-01T00:37:12.214Z,54.67
2019-05-01T00:37:46.374Z,46.98
2019-05-01T00:38:20.466Z,48.30
2019-05-01T00:38:54.801Z,51.25
2019-05-01T00:39:29.006Z,47.00
2019-05-01T00:40:03.360Z,52.62
2019-05-01T00:40:37.556Z,46.92
2019-05-01T00:41:11.654Z,46.77
2019-05-01T00:41:45.691Z,49.00
2019-05-01T00:42:19.843Z,49.45
2019-05-01T00:42:54.134Z,46.25
2019-05-01T00:43:28.346Z,44.70
2019-05-01T00:44:02.496Z,48.00
2019-05-01T00:44:36.743Z,45.60
2019-05-01T00:45:11.112Z,41.63
2019-05-01T00:45:45.248Z,45.17
2019-05-01T00:46:19.865Z,47.25
2019-05-01T00:46:54.164Z,45.20
2019-05-01T00:47:28.372Z,51.65
2019-05-01T00:48:02.487Z,57.65
2019-05-01T00:48:36.767Z,47.00
2019-05-01T00:49:11.195Z,46.15
2019-05-01T00:49:45.479Z,46.13
2019-05-01T00:50:19.746Z,56.02
2019-05-01T00:50:54.036Z,50.80
2019-05-01T00:51:29.309Z,57.90
2019-05-01T00:52:03.367Z,47.35
2019-05-01T00:52:37.509Z,45.33
2019-05-01T00:53:11.686Z,42.67
2019-05-01T00:53:45.856Z,46.42
2019-05-01T00:54:19.977Z,55.03
2019-05-01T00:55:13.364Z,47.75
2019-05-01T00:56:06.496Z,47.62
2019-05-01T00:56:55.317Z,47.85
2019-05-01T00:57:40.887Z,41.90
2019-05-01T00:58:30.791Z,45.50
2019-05-01T00:59:24.967Z,50.30
2019-05-01T01:00:18.137Z,45.08
2019-05-01T01:01:11.397Z,44.88
2019-05-01T01:02:04.469Z,45.98
2019-05-01T01:02:49.176Z,48.68
2019-05-01T01:03:23.370Z,56.88
2019-05-01T01:03:57.930Z,54.35
2019-05-01T01:04:32.389Z,54.85
2019-05-01T01:05:07.196Z,53.33
2019-05-01T01:05:41.226Z,48.55
2019-05-01T01:06:15.442Z,51.00
2019-05-01T01:06:50.096Z,56.58
2019-05-01T01:07:24.204Z,48.40
2019-05-01T01:07:58.515Z,47.78
2019-05-01T01:08:32.712Z,46.75
2019-05-01T01:09:08.067Z,48.30
2019-05-01T01:09:42.242Z,52.80
2019-05-01T01:10:16.691Z,48.02
2019-05-01T01:10:50.929Z,52.73
2019-05-01T01:11:24.979Z,44.25
2019-05-01T01:11:59.007Z,47.13
2019-05-01T01:12:33.149Z,52.08
2019-05-01T01:13:07.179Z,54.00
2019-05-01T01:13:41.446Z,59.27
2019-05-01T01:14:15.752Z,52.33
2019-05-01T01:14:49.878Z,50.65
2019-05-01T01:15:23.999Z,51.73
2019-05-01T01:15:58.252Z,48.02
2019-05-01T01:16:32.424Z,51.58
2019-05-01T01:17:06.545Z,55.38
2019-05-01T01:17:40.590Z,50.85
2019-05-01T01:18:14.848Z,51.80
2019-05-01T01:18:49.139Z,53.50
2019-05-01T01:19:23.565Z,56.85
2019-05-01T01:19:57.873Z,65.05
2019-05-01T01:20:32.146Z,60.48
2019-05-01T01:21:06.347Z,48.68
2019-05-01T01:21:40.475Z,50.15
2019-05-01T01:22:14.758Z,47.90
2019-05-01T01:22:49.040Z,57.85
2019-05-01T01:23:23.437Z,51.23
2019-05-01T01:23:57.999Z,54.55
2019-05-01T01:24:32.377Z,63.38
2019-05-01T01:25:07.441Z,64.12
2019-05-01T01:25:41.732Z,81.82
2019-05-01T01:26:16.266Z,83.05
2019-05-01T01:26:50.726Z,55.95
2019-05-01T01:27:25.546Z,61.63
2019-05-01T01:27:59.669Z,63.02
2019-05-01T01:28:34.075Z,75.65
2019-05-01T01:29:08.475Z,92.05
2019-05-01T01:29:42.709Z,76.10
2019-05-01T01:30:17.655Z,69.15
2019-05-01T01:30:56.491Z,93.60
2019-05-01T01:31:27.995Z,102.17
2019-05-01T01:32:02.181Z,84.75
2019-05-01T01:32:38.920Z,112.47
2019-05-01T01:33:13.275Z,77.60
2019-05-01T01:33:47.406Z,84.85
2019-05-01T01:34:21.514Z,79.12
2019-05-01T01:34:55.811Z,109.00
2019-05-01T01:35:29.997Z,52.62
2019-05-01T01:36:04.532Z,57.35
2019-05-01T01:36:38.764Z,65.32
2019-05-01T01:37:12.977Z,57.33
2019-05-01T01:37:47.246Z,53.00
2019-05-01T01:38:21.465Z,50.12
2019-05-01T01:38:55.909Z,55.08
2019-05-01T01:39:30.662Z,74.20
2019-05-01T01:40:05.426Z,78.95
2019-05-01T01:40:40.125Z,65.75
2019-05-01T01:41:14.691Z,60.10
2019-05-01T01:41:50.302Z,56.35
2019-05-01T01:42:24.605Z,59.45
2019-05-01T01:43:18.627Z,58.13
2019-05-01T01:44:12.297Z,45.10
2019-05-01T01:44:52.979Z,56.45
2019-05-01T01:45:41.116Z,48.35
2019-05-01T01:46:16.782Z,47.83
2019-05-01T01:46:51.918Z,48.05
2019-05-01T01:47:26.599Z,62.45
2019-05-01T01:48:20.162Z,88.03
2019-05-01T01:48:54.854Z,51.70
2019-05-01T01:49:28.957Z,42.40
2019-05-01T01:50:03.239Z,76.22
2019-05-01T01:50:38.459Z,90.72
2019-05-01T01:51:13.106Z,41.85
2019-05-01T01:51:47.394Z,76.37
2019-05-01T01:52:22.538Z,40.25
2019-05-01T01:52:57.066Z,36.58
2019-05-01T01:53:31.939Z,65.22
2019-05-01T01:54:06.553Z,59.00
2019-05-01T01:54:40.736Z,46.45
2019-05-01T01:55:15.202Z,66.92
2019-05-01T01:55:50.567Z,54.40
2019-05-01T01:56:24.824Z,64.32
2019-05-01T01:56:59.160Z,51.98
2019-05-01T01:57:33.479Z,32.00
2019-05-01T01:58:09.271Z,52.80
2019-05-01T01:58:43.684Z,57.15
2019-05-01T01:59:18.584Z,49.08
2019-05-01T01:59:53.526Z,44.75
2019-05-01T02:00:33.784Z,44.93
2019-05-01T02:01:20.665Z,30.95
2019-05-01T02:02:07.826Z,47.40
2019-05-01T02:02:48.334Z,54.93
2019-05-01T02:03:23.334Z,41.50
2019-05-01T02:04:02.008Z,31.85
2019-05-01T02:04:55.495Z,39.63
2019-05-01T02:05:33.478Z,41.42
2019-05-01T02:06:07.886Z,40.50
2019-05-01T02:06:41.928Z,35.92
2019-05-01T02:07:16.337Z,38.65
2019-05-01T02:07:51.275Z,30.85
2019-05-01T02:08:25.650Z,32.55
2019-05-01T02:08:59.884Z,34.60
2019-05-01T02:09:34.209Z,28.30
2019-05-01T02:10:09.197Z,35.17
2019-05-01T02:10:43.602Z,35.10
2019-05-01T02:11:18.086Z,34.65
2019-05-01T02:11:52.582Z,32.08
2019-05-01T02:12:26.899Z,42.80
2019-05-01T02:13:01.226Z,42.78
2019-05-01T02:13:35.589Z,34.90
2019-05-01T02:14:09.992Z,32.00
2019-05-01T02:14:44.146Z,34.50
2019-05-01T02:15:18.797Z,30.17
2019-05-01T02:15:53.286Z,34.30
2019-05-01T02:16:27.789Z,30.00
2019-05-01T02:17:02.065Z,33.05
2019-05-01T02:17:36.371Z,36.23
2019-05-01T02:18:10.719Z,20.27
2019-05-01T02:18:44.940Z,26.73
2019-05-01T02:19:19.252Z,27.93
2019-05-01T02:19:53.461Z,23.10
2019-05-01T02:20:27.644Z,23.00
2019-05-01T02:21:01.828Z,22.85
2019-05-01T02:21:35.947Z,27.95
2019-05-01T02:22:10.149Z,32.33
2019-05-01T02:22:44.554Z,37.48
2019-05-01T02:23:18.846Z,29.45
2019-05-01T02:23:53.172Z,27.95
2019-05-01T02:24:27.257Z,24.15
2019-05-01T02:25:01.577Z,31.15
2019-05-01T02:25:38.125Z,32.38
2019-05-01T02:26:13.254Z,22.32
2019-05-01T02:26:49.751Z,28.77
2019-05-01T02:27:34.438Z,28.42
2019-05-01T02:28:27.777Z,21.02
2019-05-01T02:29:09.681Z,19.82
2019-05-01T02:29:48.674Z,33.50
2019-05-01T02:30:23.833Z,34.18
2019-05-01T02:31:27.395Z,38.60
2019-05-01T02:31:55.656Z,29.60
2019-05-01T02:32:30.525Z,38.55
2019-05-01T02:33:05.127Z,37.23
2019-05-01T02:33:40.836Z,44.25
2019-05-01T02:34:16.461Z,36.90
2019-05-01T02:34:51.336Z,41.90
2019-05-01T02:35:30.212Z,45.17
2019-05-01T02:36:03.673Z,55.38
2019-05-01T02:36:38.560Z,46.25
2019-05-01T02:37:15.757Z,46.80
2019-05-01T02:37:50.886Z,46.95
2019-05-01T02:38:25.380Z,49.23
2019-05-01T02:39:01.079Z,50.23
2019-05-01T02:39:36.739Z,53.73
2019-05-01T02:40:40.280Z,51.13
2019-05-01T02:41:16.900Z,44.42
2019-05-01T02:41:53.056Z,50.08
2019-05-01T02:42:30.665Z,52.05
2019-05-01T02:43:05.586Z,47.90
2019-05-01T02:43:43.261Z,49.75
2019-05-01T02:44:25.619Z,44.42
2019-05-01T02:45:02.834Z,46.02
2019-05-01T02:45:38.526Z,38.17
2019-05-01T02:46:15.324Z,43.80
2019-05-01T02:46:51.818Z,42.43
2019-05-01T02:47:29.587Z,44.58
2019-05-01T02:48:04.589Z,45.08
2019-05-01T02:48:42.159Z,46.92
2019-05-01T02:49:24.592Z,54.60
2019-05-01T02:50:18.592Z,49.55
2019-05-01T02:50:56.216Z,52.80
2019-05-01T02:51:30.627Z,48.75
2019-05-01T02:52:07.356Z,50.43
2019-05-01T02:52:43.220Z,47.90
2019-05-01T02:53:19.997Z,37.55
2019-05-01T02:53:54.856Z,38.60
2019-05-01T02:54:29.651Z,31.27
2019-05-01T02:55:07.881Z,28.50
2019-05-01T02:55:47.753Z,30.43
2019-05-01T02:56:41.677Z,32.67
2019-05-01T02:57:19.057Z,38.28
2019-05-01T02:57:53.577Z,39.03
2019-05-01T02:58:27.955Z,34.23
2019-05-01T02:59:05.517Z,37.67
2019-05-01T02:59:42.261Z,35.15
2019-05-01T03:00:18.180Z,39.63
2019-05-01T03:00:52.587Z,50.15
2019-05-01T03:01:44.365Z,46.48
2019-05-01T03:02:03.830Z,36.25
2019-05-01T03:02:39.608Z,62.13
2019-05-01T03:03:13.927Z,57.95
2019-05-01T03:03:49.547Z,80.28
2019-05-01T03:04:24.109Z,65.92
2019-05-01T03:04:59.221Z,84.03
2019-05-01T03:05:33.632Z,74.77
2019-05-01T03:06:07.887Z,51.50
2019-05-01T03:06:42.067Z,54.58
2019-05-01T03:07:17.889Z,47.55
2019-05-01T03:07:52.677Z,36.63
2019-05-01T03:08:27.153Z,46.45
2019-05-01T03:09:06.338Z,57.27
2019-05-01T03:09:41.518Z,44.25
2019-05-01T03:10:16.488Z,55.05
2019-05-01T03:10:51.617Z,50.28
2019-05-01T03:11:26.467Z,53.48
2019-05-01T03:12:02.612Z,45.28
2019-05-01T03:12:40.587Z,42.73
2019-05-01T03:13:15.168Z,35.48
2019-05-01T03:13:51.207Z,46.88
2019-05-01T03:14:28.347Z,46.60
2019-05-01T03:15:04.669Z,47.70
2019-05-01T03:15:39.238Z,46.90
2019-05-01T03:16:13.997Z,48.25
2019-05-01T03:16:50.831Z,44.85
2019-05-01T03:17:44.059Z,52.13
2019-05-01T03:18:31.798Z,45.00
2019-05-01T03:19:10.906Z,54.53
2019-05-01T03:20:04.310Z,56.05
2019-05-01T03:20:58.570Z,47.43
2019-05-01T03:21:39.508Z,49.60
2019-05-01T03:22:33.610Z,51.13
2019-05-01T03:23:26.937Z,54.45
2019-05-01T03:24:05.978Z,52.30
2019-05-01T03:24:40.200Z,61.65
2019-05-01T03:25:14.889Z,50.63
2019-05-01T03:25:49.350Z,58.45
2019-05-01T03:26:23.782Z,61.55
2019-05-01T03:26:59.205Z,53.02
2019-05-01T03:27:33.964Z,58.60
2019-05-01T03:28:08.589Z,66.95
2019-05-01T03:28:43.060Z,94.00
2019-05-01T03:29:17.463Z,71.72
2019-05-01T03:29:51.652Z,57.08
2019-05-01T03:30:25.986Z,56.23
2019-05-01T03:31:00.240Z,71.65
2019-05-01T03:31:34.407Z,62.60
2019-05-01T03:32:19.271Z,67.72
2019-05-01T03:32:44.529Z,61.40
2019-05-01T03:33:19.027Z,60.30
2019-05-01T03:33:53.616Z,77.05
2019-05-01T03:34:29.153Z,78.20
2019-05-01T03:35:03.657Z,82.27
2019-05-01T03:35:37.917Z,60.75
2019-05-01T03:36:12.386Z,54.27
2019-05-01T03:36:46.725Z,58.83
2019-05-01T03:37:21.266Z,50.20
2019-05-01T03:37:55.710Z,57.48
2019-05-01T03:38:30.997Z,61.10
2019-05-01T03:39:06.216Z,50.73
2019-05-01T03:39:41.008Z,52.35
2019-05-01T03:40:15.728Z,54.85
2019-05-01T03:40:50.426Z,57.45
2019-05-01T03:41:25.003Z,67.53
2019-05-01T03:41:59.711Z,51.30
2019-05-01T03:42:34.007Z,56.95
2019-05-01T03:43:08.518Z,39.95
2019-05-01T03:43:42.823Z,47.55
2019-05-01T03:44:17.771Z,56.10
2019-05-01T03:44:51.946Z,49.25
2019-05-01T03:45:26.756Z,64.75
2019-05-01T03:46:00.935Z,45.67
2019-05-01T03:46:35.770Z,45.88
2019-05-01T03:47:10.130Z,47.08
2019-05-01T03:47:44.760Z,60.35
2019-05-01T03:48:19.695Z,50.05
2019-05-01T03:48:54.122Z,50.63
2019-05-01T03:49:28.380Z,59.42
2019-05-01T03:50:02.643Z,54.05
2019-05-01T03:50:37.123Z,69.65
2019-05-01T03:51:11.636Z,56.10
2019-05-01T03:51:46.013Z,49.20
2019-05-01T03:52:20.371Z,42.90
2019-05-01T03:52:54.750Z,40.30
2019-05-01T03:53:29.621Z,50.83
2019-05-01T03:54:04.119Z,52.55
2019-05-01T03:54:38.414Z,44.80
2019-05-01T03:55:12.782Z,51.23
2019-05-01T03:55:47.468Z,47.17
2019-05-01T03:56:21.736Z,48.55
2019-05-01T03:56:55.950Z,48.13
2019-05-01T03:57:30.301Z,56.25
2019-05-01T03:58:05.110Z,51.88
2019-05-01T03:58:39.987Z,62.78
2019-05-01T03:59:14.435Z,57.30
2019-05-01T03:59:49.036Z,65.25
2019-05-01T04:00:34.802Z,70.37
2019-05-01T04:01:24.689Z,68.12
2019-05-01T04:02:32.177Z,55.98
2019-05-01T04:03:13.793Z,56.20
2019-05-01T04:03:51.376Z,54.70
2019-05-01T04:04:28.069Z,57.93
2019-05-01T04:05:02.463Z,69.20
2019-05-01T04:05:37.007Z,58.65
2019-05-01T04:06:11.555Z,54.48
2019-05-01T04:06:46.102Z,53.02
2019-05-01T04:07:20.685Z,45.73
2019-05-01T04:07:54.870Z,50.85
2019-05-01T04:08:36.683Z,49.90
2019-05-01T04:09:10.749Z,45.92
2019-05-01T04:09:45.058Z,56.10
2019-05-01T04:10:19.780Z,51.25
2019-05-01T04:10:55.666Z,51.35
2019-05-01T04:11:29.925Z,46.35
2019-05-01T04:12:04.612Z,50.85
2019-05-01T04:12:38.996Z,50.55
2019-05-01T04:13:13.877Z,65.97
2019-05-01T04:13:48.270Z,64.03
2019-05-01T04:14:22.849Z,56.08
2019-05-01T04:14:57.578Z,48.92
2019-05-01T04:15:32.039Z,48.55
2019-05-01T04:16:06.625Z,46.50
2019-05-01T04:16:42.820Z,44.55
2019-05-01T04:17:23.557Z,44.05
2019-05-01T04:17:59.558Z,45.33
2019-05-01T04:18:34.606Z,44.15
2019-05-01T04:19:08.780Z,43.38
2019-05-01T04:19:43.417Z,47.05
2019-05-01T04:20:18.025Z,50.15
2019-05-01T04:20:52.468Z,46.13
2019-05-01T04:21:30.695Z,48.90
2019-05-01T04:22:10.368Z,48.35
2019-05-01T04:22:46.309Z,50.45
2019-05-01T04:23:20.801Z,43.35
2019-05-01T04:23:55.181Z,45.05
2019-05-01T04:24:29.848Z,41.92
2019-05-01T04:25:04.117Z,36.08
2019-05-01T04:25:38.675Z,40.45
2019-05-01T04:26:13.425Z,48.63
2019-05-01T04:26:47.605Z,40.20
2019-05-01T04:27:30.436Z,38.83
2019-05-01T04:28:23.798Z,45.88
2019-05-01T04:29:04.381Z,38.80
2019-05-01T04:29:45.281Z,39.53
2019-05-01T04:30:25.330Z,44.15
2019-05-01T04:31:08.465Z,38.80
2019-05-01T04:32:02.108Z,37.93
2019-05-01T04:32:50.951Z,36.85
2019-05-01T04:33:13.489Z,36.10
2019-05-01T04:33:48.385Z,33.80
2019-05-01T04:34:28.397Z,33.00
2019-05-01T04:35:22.016Z,34.65
2019-05-01T04:36:01.652Z,32.80
2019-05-01T04:36:38.688Z,35.45
2019-05-01T04:37:13.813Z,32.35
2019-05-01T04:37:48.058Z,30.97
2019-05-01T04:38:22.741Z,33.20
2019-05-01T04:38:57.147Z,32.95
2019-05-01T04:39:31.546Z,30.48
2019-05-01T04:40:06.619Z,31.82
2019-05-01T04:40:41.097Z,29.42
2019-05-01T04:41:15.576Z,31.40
2019-05-01T04:41:49.922Z,30.43
2019-05-01T04:42:24.572Z,30.05
2019-05-01T04:42:58.996Z,28.25
2019-05-01T04:43:33.595Z,27.32
2019-05-01T04:44:08.203Z,27.90
2019-05-01T04:44:42.751Z,27.37
2019-05-01T04:45:17.991Z,27.85
2019-05-01T04:45:52.447Z,26.62
2019-05-01T04:46:27.022Z,28.25
2019-05-01T04:47:02.262Z,29.23
2019-05-01T04:47:36.820Z,26.80
2019-05-01T04:48:11.120Z,26.97
2019-05-01T04:48:45.532Z,29.12
2019-05-01T04:49:19.988Z,24.60
2019-05-01T04:49:54.199Z,26.97
2019-05-01T04:50:28.910Z,26.55
2019-05-01T04:51:03.292Z,26.87
2019-05-01T04:51:37.772Z,26.60
2019-05-01T04:52:12.389Z,24.95
2019-05-01T04:52:46.882Z,27.70
2019-05-01T04:53:21.372Z,27.48
2019-05-01T04:53:55.975Z,27.67
2019-05-01T04:54:30.407Z,26.48
2019-05-01T04:55:05.019Z,27.60
2019-05-01T04:55:40.040Z,27.42
2019-05-01T04:56:14.809Z,25.17
2019-05-01T04:56:49.209Z,25.05
2019-05-01T04:57:23.775Z,22.70
2019-05-01T04:57:58.241Z,24.12
2019-05-01T04:58:32.711Z,26.30
2019-05-01T04:59:07.519Z,25.48
2019-05-01T04:59:41.973Z,23.27
2019-05-01T05:00:16.381Z,26.55
2019-05-01T05:00:50.747Z,28.38
2019-05-01T05:01:28.937Z,27.90
2019-05-01T05:02:05.216Z,23.75
2019-05-01T05:02:44.768Z,22.07
2019-05-01T05:03:20.058Z,21.50
2019-05-01T05:03:55.217Z,20.25
2019-05-01T05:04:30.477Z,20.80
2019-05-01T05:05:05.644Z,20.62
2019-05-01T05:05:40.070Z,19.65
2019-05-01T05:06:15.277Z,20.17
2019-05-01T05:06:49.708Z,21.20
2019-05-01T05:07:24.135Z,22.00
2019-05-01T05:07:58.710Z,19.40
2019-05-01T05:08:33.117Z,20.82
2019-05-01T05:09:07.352Z,20.00
2019-05-01T05:09:46.581Z,20.02
2019-05-01T05:10:20.945Z,18.77
2019-05-01T05:10:57.205Z,17.55
2019-05-01T05:11:47.518Z,17.60
2019-05-01T05:12:28.976Z,16.73
2019-05-01T05:13:22.231Z,19.20
2019-05-01T05:14:15.936Z,16.67
2019-05-01T05:14:55.282Z,17.62
2019-05-01T05:15:49.076Z,19.23
2019-05-01T05:16:42.620Z,17.23
2019-05-01T05:17:20.455Z,17.85
2019-05-01T05:17:54.884Z,17.05
2019-05-01T05:18:29.231Z,15.98
2019-05-01T05:19:03.489Z,17.02
2019-05-01T05:19:37.979Z,16.00
2019-05-01T05:20:12.252Z,17.23
2019-05-01T05:20:46.533Z,16.85
2019-05-01T05:21:21.052Z,16.35
2019-05-01T05:21:55.457Z,17.35
2019-05-01T05:22:30.377Z,17.25
2019-05-01T05:23:05.174Z,16.52
2019-05-01T05:23:39.576Z,15.53
2019-05-01T05:24:14.036Z,14.70
2019-05-01T05:24:48.526Z,15.20
2019-05-01T05:25:22.996Z,15.05
2019-05-01T05:25:57.297Z,14.55
2019-05-01T05:26:32.054Z,13.35
2019-05-01T05:27:07.154Z,13.68
2019-05-01T05:27:41.869Z,13.95
2019-05-01T05:28:16.613Z,12.63
2019-05-01T05:28:51.420Z,12.53
2019-05-01T05:29:26.579Z,13.35
2019-05-01T05:30:01.151Z,13.85
2019-05-01T05:30:36.506Z,13.95
2019-05-01T05:31:12.617Z,14.83
2019-05-01T05:31:47.806Z,13.58
2019-05-01T05:32:23.237Z,11.65
2019-05-01T05:32:59.141Z,11.93
2019-05-01T05:33:36.106Z,11.93
2019-05-01T05:34:11.751Z,13.00
2019-05-01T05:34:47.559Z,11.97
2019-05-01T05:35:24.557Z,12.65
2019-05-01T05:35:59.523Z,11.50
2019-05-01T05:36:36.240Z,11.38
2019-05-01T05:37:17.879Z,10.90
2019-05-01T05:38:13.514Z,12.55
2019-05-01T05:38:57.729Z,11.20
2019-05-01T05:39:40.863Z,12.30
2019-05-01T05:40:16.818Z,10.05
2019-05-01T05:40:51.852Z,11.60
2019-05-01T05:41:26.621Z,12.15
2019-05-01T05:42:02.102Z,11.20
2019-05-01T05:42:37.119Z,10.80
2019-05-01T05:43:11.509Z,10.63
2019-05-01T05:43:45.886Z,10.30
2019-05-01T05:44:20.568Z,10.38
2019-05-01T05:44:54.910Z,11.12
2019-05-01T05:45:29.136Z,11.12
2019-05-01T05:46:04.040Z,9.73
2019-05-01T05:46:38.506Z,10.82
2019-05-01T05:47:15.827Z,11.28
2019-05-01T05:47:50.177Z,10.55
2019-05-01T05:48:24.822Z,9.65
2019-05-01T05:48:59.505Z,10.63
2019-05-01T05:49:34.189Z,10.20
2019-05-01T05:50:09.609Z,10.60
2019-05-01T05:50:56.586Z,10.08
2019-05-01T05:51:42.860Z,8.68
2019-05-01T05:52:37.078Z,8.65
2019-05-01T05:53:15.278Z,8.55
2019-05-01T05:53:53.245Z,9.23
2019-05-01T05:54:49.448Z,9.33
2019-05-01T05:55:36.117Z,9.30
2019-05-01T05:56:14.842Z,9.20
2019-05-01T05:56:53.688Z,9.53
2019-05-01T05:57:54.785Z,9.70
2019-05-01T05:58:39.026Z,9.95
2019-05-01T05:59:18.938Z,10.18
2019-05-01T05:59:57.328Z,11.20
2019-05-01T06:00:53.706Z,10.63
2019-05-01T06:01:49.180Z,10.13
2019-05-01T06:02:33.187Z,10.23
2019-05-01T06:03:31.219Z,12.63
2019-05-01T06:04:27.216Z,19.82
2019-05-01T06:05:22.483Z,17.90
2019-05-01T06:06:06.947Z,12.00
2019-05-01T06:07:02.580Z,10.72
2019-05-01T06:07:44.567Z,11.50
2019-05-01T06:08:23.697Z,10.82
2019-05-01T06:09:00.806Z,11.90
2019-05-01T06:09:55.598Z,11.63
2019-05-01T06:10:42.981Z,10.85
2019-05-01T06:11:39.312Z,11.63
2019-05-01T06:12:34.017Z,11.73
2019-05-01T06:13:17.951Z,10.43
2019-05-01T06:14:11.152Z,10.90
2019-05-01T06:15:07.665Z,11.53
2019-05-01T06:15:50.274Z,11.40
2019-05-01T06:16:40.414Z,10.63
2019-05-01T06:17:23.792Z,10.68
2019-05-01T06:18:05.934Z,10.08
2019-05-01T06:18:59.546Z,11.10
2019-05-01T06:19:39.514Z,10.23
2019-05-01T06:20:32.967Z,11.30
2019-05-01T06:21:14.495Z,11.57
2019-05-01T06:22:10.317Z,10.80
2019-05-01T06:23:05.707Z,10.30
2019-05-01T06:24:06.283Z,10.08
2019-05-01T06:24:40.658Z,10.48
2019-05-01T06:25:22.729Z,15.15
2019-05-01T06:26:02.526Z,10.58
2019-05-01T06:26:39.518Z,15.43
2019-05-01T06:27:15.084Z,10.98
2019-05-01T06:27:50.513Z,9.78
2019-05-01T06:28:26.327Z,9.20
2019-05-01T06:29:03.211Z,9.83
2019-05-01T06:29:37.798Z,9.95
2019-05-01T06:30:12.620Z,10.68
2019-05-01T06:30:48.855Z,9.68
2019-05-01T06:31:24.621Z,10.35
2019-05-01T06:32:00.081Z,9.85
2019-05-01T06:32:34.798Z,9.35
2019-05-01T06:33:09.738Z,9.30
2019-05-01T06:33:48.643Z,9.08
2019-05-01T06:34:23.919Z,9.88
2019-05-01T06:34:58.446Z,9.90
2019-05-01T06:35:38.261Z,10.60
2019-05-01T06:36:13.206Z,9.30
2019-05-01T06:36:49.612Z,10.40
2019-05-01T06:37:25.294Z,9.20
2019-05-01T06:38:02.250Z,10.30
2019-05-01T06:38:37.800Z,9.75
2019-05-01T06:39:13.329Z,9.10
2019-05-01T06:39:49.836Z,9.23
2019-05-01T06:40:39.302Z,9.33
2019-05-01T06:41:14.277Z,9.70
2019-05-01T06:41:48.933Z,9.23
2019-05-01T06:42:23.335Z,8.98
2019-05-01T06:42:57.742Z,8.63
2019-05-01T06:43:51.054Z,9.58
2019-05-01T06:44:44.831Z,9.43
2019-05-01T06:45:20.885Z,8.85
2019-05-01T06:46:14.560Z,8.68
2019-05-01T06:47:08.380Z,9.55
2019-05-01T06:47:53.487Z,9.35
2019-05-01T06:48:28.338Z,8.48
2019-05-01T06:49:24.386Z,8.83
2019-05-01T06:50:20.150Z,8.70
2019-05-01T06:50:57.917Z,8.83
2019-05-01T06:51:53.227Z,8.25
2019-05-01T06:52:29.333Z,7.60
2019-05-01T06:53:06.090Z,8.05
2019-05-01T06:53:41.240Z,8.25
2019-05-01T06:54:17.667Z,9.43
2019-05-01T06:54:53.631Z,9.15
2019-05-01T06:55:28.963Z,8.88
2019-05-01T06:56:03.373Z,9.35
2019-05-01T06:56:38.440Z,8.05
2019-05-01T06:57:12.964Z,9.23
2019-05-01T06:57:47.759Z,8.88
2019-05-01T06:58:23.297Z,8.25
2019-05-01T06:58:57.825Z,9.53
2019-05-01T06:59:34.065Z,8.70
2019-05-01T07:00:13.983Z,9.28
2019-05-01T07:00:48.646Z,9.18
2019-05-01T07:01:23.987Z,9.38
2019-05-01T07:02:00.235Z,9.05
2019-05-01T07:02:35.459Z,8.50
2019-05-01T07:03:11.729Z,8.55
2019-05-01T07:04:02.959Z,9.45
2019-05-01T07:04:22.708Z,9.63
2019-05-01T07:04:57.078Z,9.23
2019-05-01T07:05:32.090Z,8.40
2019-05-01T07:06:14.182Z,8.90
2019-05-01T07:06:42.657Z,8.68
2019-05-01T07:07:25.228Z,8.83
2019-05-01T07:07:55.844Z,8.80
2019-05-01T07:08:34.312Z,8.88
2019-05-01T07:09:11.970Z,8.35
2019-05-01T07:09:49.324Z,8.93
2019-05-01T07:10:30.697Z,9.55
2019-05-01T07:10:57.036Z,9.30
2019-05-01T07:11:31.580Z,8.60
2019-05-01T07:12:08.437Z,9.13
2019-05-01T07:12:42.775Z,9.60
2019-05-01T07:13:17.143Z,10.00
2019-05-01T07:13:51.696Z,9.05
2019-05-01T07:14:26.514Z,8.68
2019-05-01T07:15:01.969Z,9.13
2019-05-01T07:15:36.358Z,9.13
2019-05-01T07:16:10.554Z,8.43
2019-05-01T07:16:44.977Z,8.48
2019-05-01T07:17:19.419Z,9.13
2019-05-01T07:17:54.111Z,7.55
2019-05-01T07:18:29.181Z,8.35
2019-05-01T07:19:06.041Z,7.87
2019-05-01T07:20:00.454Z,8.45
2019-05-01T07:20:53.282Z,8.90
2019-05-01T07:21:32.389Z,8.08
2019-05-01T07:22:06.344Z,8.20
2019-05-01T07:22:42.187Z,7.95
2019-05-01T07:23:18.742Z,8.50
2019-05-01T07:23:53.450Z,8.48
2019-05-01T07:24:29.094Z,7.95
2019-05-01T07:25:05.249Z,7.75
2019-05-01T07:25:40.642Z,7.87
2019-05-01T07:26:15.221Z,7.17
2019-05-01T07:26:49.275Z,6.83
2019-05-01T07:27:25.217Z,6.67
2019-05-01T07:27:59.805Z,7.37
2019-05-01T07:28:36.231Z,6.80
2019-05-01T07:29:13.880Z,6.83
2019-05-01T07:29:49.711Z,7.50
2019-05-01T07:30:36.334Z,6.53
2019-05-01T07:31:15.014Z,7.20
2019-05-01T07:31:49.558Z,6.47
2019-05-01T07:32:24.213Z,7.62
2019-05-01T07:32:58.855Z,6.70
2019-05-01T07:33:33.186Z,7.40
2019-05-01T07:34:16.421Z,8.03
2019-05-01T07:34:43.462Z,7.67
2019-05-01T07:35:18.087Z,7.30
2019-05-01T07:35:54.004Z,6.97
2019-05-01T07:36:28.434Z,6.28
2019-05-01T07:37:03.757Z,7.20
2019-05-01T07:37:38.342Z,6.60
2019-05-01T07:38:12.870Z,7.53
2019-05-01T07:38:48.400Z,7.87
2019-05-01T07:39:22.794Z,6.60
2019-05-01T07:39:56.961Z,7.47
2019-05-01T07:40:31.466Z,6.95
2019-05-01T07:41:06.159Z,5.67
2019-05-01T07:41:40.598Z,6.58
2019-05-01T07:42:33.965Z,6.03
2019-05-01T07:43:19.084Z,5.90
2019-05-01T07:44:11.156Z,6.47
2019-05-01T07:44:46.967Z,5.72
2019-05-01T07:45:33.708Z,5.78
2019-05-01T07:46:27.267Z,5.60
2019-05-01T07:47:15.804Z,6.10
2019-05-01T07:47:50.808Z,5.78
2019-05-01T07:48:36.207Z,6.65
2019-05-01T07:49:13.068Z,6.70
2019-05-01T07:49:54.913Z,6.67
2019-05-01T07:50:32.648Z,6.42
2019-05-01T07:51:08.825Z,6.60
2019-05-01T07:52:02.914Z,6.58
2019-05-01T07:52:37.440Z,6.55
2019-05-01T07:53:11.816Z,7.08
2019-05-01T07:53:46.789Z,5.78
2019-05-01T07:54:22.767Z,7.15
2019-05-01T07:54:57.922Z,6.78
2019-05-01T07:55:38.346Z,6.90
2019-05-01T07:56:12.857Z,6.97
2019-05-01T07:56:47.585Z,6.40
2019-05-01T07:57:25.138Z,5.90
2019-05-01T07:57:59.735Z,6.47
2019-05-01T07:58:34.427Z,5.62
2019-05-01T07:59:08.731Z,6.45
2019-05-01T07:59:43.094Z,6.50
2019-05-01T08:00:36.886Z,6.08
2019-05-01T08:01:27.956Z,5.95
2019-05-01T08:02:06.694Z,5.78
2019-05-01T08:02:41.022Z,6.30
2019-05-01T08:03:15.435Z,6.42
2019-05-01T08:03:49.767Z,6.35
2019-05-01T08:04:35.976Z,6.30
2019-05-01T08:05:00.221Z,6.40
2019-05-01T08:05:34.541Z,5.97
2019-05-01T08:06:08.740Z,6.42